Time;durP1;ratioP1;P1;durP2;ratioP2;P2;SDS_P1;SDS_P2;PMS_P1;PMS_P2;Temp;Humidity;BMP_temperature;BMP_pressure;BME280_temperature;BME280_humidity;BME280_pressure;Samples;Min_cycle;Max_cycle;Signal;HPM_P1;HPM_P2
2024/02/03 00:05:17;;;;;;;22.50;10.70;;;;;;;5.20;84.83;98525.27;435516;1251;109803;-40
2024/02/03 00:25:23;;;;;;;12.30;6.40;;;;;;;5.22;85.29;98524.36;435418;1251;96659;-39
2024/02/03 00:35:26;;;;;;;14.60;8.10;;;;;;;5.19;85.59;98526.08;435312;1253;109913;-40
2024/02/03 00:45:29;;;;;;;14.60;8.40;;;;;;;5.04;86.55;98524.45;435443;1253;108385;-40
2024/02/03 00:55:33;;;;;;;15.00;8.40;;;;;;;4.96;87.27;98516.36;435516;1251;97938;-40
2024/02/03 01:25:43;;;;;;;20.70;9.60;;;;;;;5.00;88.95;98487.88;435603;1251;109864;-38
2024/02/03 01:35:50;;;;;;;19.30;9.10;;;;;;;5.02;89.92;98474.17;435224;1251;108043;-40
2024/02/03 01:45:54;;;;;;;15.50;7.40;;;;;;;5.11;89.96;98469.67;435342;1251;97880;-38
2024/02/03 02:06:02;;;;;;;21.00;11.80;;;;;;;5.22;90.41;98468.25;436290;1251;98013;-40
2024/02/03 02:26:35;;;;;;;16.10;9.30;;;;;;;5.19;91.08;98456.34;436254;1253;107738;-41
2024/02/03 02:36:39;;;;;;;15.80;9.20;;;;;;;5.26;91.21;98452.29;436260;1263;98030;-40
2024/02/03 02:46:43;;;;;;;12.20;7.80;;;;;;;5.39;91.99;98450.84;436262;1251;107705;-39
2024/02/03 03:06:50;;;;;;;12.90;6.50;;;;;;;5.74;92.67;98446.55;436305;1253;109674;-40
2024/02/03 03:16:57;;;;;;;9.20;5.70;;;;;;;5.78;92.61;98454.16;436407;1249;107770;-40
2024/02/03 03:27:01;;;;;;;9.00;4.50;;;;;;;5.91;92.68;98452.55;436313;1249;97764;-40
2024/02/03 03:37:05;;;;;;;7.40;4.30;;;;;;;6.04;92.77;98449.43;436168;1253;108509;-39
2024/02/03 03:47:13;;;;;;;8.60;4.50;;;;;;;6.14;92.65;98463.06;436304;1253;97463;-41
2024/02/03 03:57:16;;;;;;;7.80;5.40;;;;;;;6.20;92.61;98467.43;436462;1248;109526;-40
2024/02/03 04:07:20;;;;;;;7.00;4.00;;;;;;;6.27;92.59;98467.98;436246;1261;97894;-40
2024/02/03 04:17:24;;;;;;;7.70;4.70;;;;;;;6.38;92.45;98467.58;436243;1253;97579;-41
2024/02/03 04:27:27;;;;;;;6.40;4.30;;;;;;;6.44;92.15;98465.14;436317;1252;109485;-40
2024/02/03 04:37:34;;;;;;;7.60;3.80;;;;;;;6.43;92.04;98453.95;436420;1253;107235;-39
2024/02/03 04:57:44;;;;;;;5.40;3.50;;;;;;;6.60;91.87;98457.36;436382;1252;107031;-39
2024/02/03 05:07:48;;;;;;;3.30;2.70;;;;;;;6.64;91.92;98451.28;436365;1251;97464;-40
2024/02/03 05:17:55;;;;;;;6.70;3.00;;;;;;;6.68;91.82;98456.91;436502;1261;111309;-41
2024/02/03 05:28:03;;;;;;;6.10;3.70;;;;;;;6.74;91.81;98455.60;436265;1253;107971;-40
2024/02/03 05:38:07;;;;;;;6.40;3.10;;;;;;;6.78;91.90;98451.73;436187;1253;97886;-40
2024/02/03 05:48:09;;;;;;;6.60;4.50;;;;;;;6.78;92.11;98447.95;436470;1253;106757;-40
2024/02/03 05:58:17;;;;;;;3.90;2.90;;;;;;;6.77;92.31;98444.23;436356;1253;97877;-39
2024/02/03 06:08:24;;;;;;;4.20;3.40;;;;;;;6.79;92.48;98461.80;436252;1248;110752;-40
2024/02/03 06:28:31;;;;;;;7.80;4.70;;;;;;;6.78;92.97;98478.70;436356;1252;96615;-38
2024/02/03 06:38:38;;;;;;;6.00;4.30;;;;;;;6.73;93.17;98492.08;436106;1253;108746;-39
2024/02/03 06:48:42;;;;;;;7.80;4.70;;;;;;;6.69;93.55;98504.55;436256;1254;97482;-40
2024/02/03 07:18:53;;;;;;;9.10;6.40;;;;;;;6.62;94.99;98514.37;436240;1253;97887;-40
2024/02/03 07:29:00;;;;;;;10.70;9.00;;;;;;;6.63;95.22;98522.15;436178;1254;107355;-40
2024/02/03 07:49:06;;;;;;;10.90;8.70;;;;;;;6.72;96.16;98523.25;436384;1252;110851;-39
2024/02/03 07:59:09;;;;;;;9.40;7.30;;;;;;;6.81;96.69;98533.40;436060;1261;107896;-39
2024/02/03 08:09:16;;;;;;;10.70;8.50;;;;;;;6.89;96.62;98535.44;436301;1253;97451;-39
2024/02/03 08:29:35;;;;;;;13.00;8.80;;;;;;;7.06;97.25;98517.02;435927;1250;567354;-39
2024/02/03 08:39:38;;;;;;;12.70;6.90;;;;;;;7.20;97.43;98520.25;436319;1251;111605;-40
2024/02/03 08:59:57;;;;;;;18.40;13.20;;;;;;;7.67;97.21;98518.46;436273;1261;99358;-41
2024/02/03 09:10:01;;;;;;;14.00;8.60;;;;;;;7.74;96.96;98532.66;436305;1254;108555;-40
2024/02/03 09:20:06;;;;;;;7.60;6.00;;;;;;;7.79;96.79;98533.08;436711;1252;99230;-40
2024/02/03 09:30:13;;;;;;;10.10;6.50;;;;;;;7.81;96.77;98537.23;436322;1254;112419;-39
2024/02/03 09:40:18;;;;;;;10.00;6.00;;;;;;;7.84;97.03;98540.39;436186;1251;107677;-40
2024/02/03 10:20:39;;;;;;;11.60;8.70;;;;;;;7.78;98.12;98540.54;436308;1247;110914;-39
2024/02/03 10:31:00;;;;;;;10.60;9.40;;;;;;;7.90;98.17;98538.88;436299;1248;107129;-39
2024/02/03 10:41:09;;;;;;;7.60;6.20;;;;;;;8.06;98.28;98527.36;436156;1253;99212;-39
2024/02/03 10:51:12;;;;;;;9.40;7.00;;;;;;;8.22;98.03;98535.71;436367;1253;107476;-40
2024/02/03 11:01:17;;;;;;;7.60;5.00;;;;;;;8.37;97.71;98537.12;436301;1254;99247;-38
2024/02/03 11:11:27;;;;;;;4.50;3.70;;;;;;;8.57;97.33;98523.98;436281;1247;111140;-41
2024/02/03 11:21:31;;;;;;;4.40;3.70;;;;;;;8.91;96.98;98511.38;436053;1254;107706;-40
2024/02/03 11:31:34;;;;;;;3.70;3.00;;;;;;;9.21;96.06;98522.23;436193;1248;99208;-39
2024/02/03 11:41:38;;;;;;;5.10;3.20;;;;;;;9.19;95.45;98527.13;436251;1253;107672;-40
2024/02/03 11:51:41;;;;;;;4.70;2.40;;;;;;;9.15;95.13;98532.39;436165;1254;99610;-40
2024/02/03 12:01:44;;;;;;;5.30;2.70;;;;;;;9.12;94.79;98525.52;436247;1252;111924;-41
2024/02/03 12:11:47;;;;;;;4.30;2.10;;;;;;;9.30;94.44;98524.73;436184;1248;107759;-40
2024/02/03 12:21:51;;;;;;;3.20;2.60;;;;;;;9.45;93.96;98515.82;436113;1249;99362;-40
2024/02/03 12:31:58;;;;;;;3.90;1.80;;;;;;;9.49;93.59;98507.16;436287;1253;107489;-39
2024/02/03 12:42:02;;;;;;;10.00;6.20;;;;;;;9.51;93.08;98511.66;436351;1261;99651;-39
2024/02/03 12:52:06;;;;;;;7.30;4.70;;;;;;;9.43;92.88;98508.17;436102;1255;111724;-40
2024/02/03 13:02:09;;;;;;;4.60;3.20;;;;;;;9.58;93.00;98505.40;436366;1252;106672;-40
2024/02/03 13:12:13;;;;;;;4.70;2.40;;;;;;;9.70;92.90;98507.38;436407;1248;99205;-39
2024/02/03 13:22:20;;;;;;;12.50;3.60;;;;;;;9.59;92.34;98510.74;436368;1251;107864;-40
2024/02/03 13:32:24;;;;;;;4.20;3.40;;;;;;;9.42;92.21;98517.48;436133;1253;99227;-40
2024/02/03 13:42:28;;;;;;;4.10;3.10;;;;;;;9.21;92.52;98527.97;436359;1250;112053;-40
2024/02/03 13:52:31;;;;;;;6.40;4.60;;;;;;;8.90;92.89;98524.55;436130;1253;107193;-39
2024/02/03 14:02:38;;;;;;;6.90;4.90;;;;;;;8.77;93.52;98527.29;436166;1250;98832;-39
2024/02/03 14:13:07;;;;;;;16.90;12.40;;;;;;;8.67;93.93;98534.10;436240;1253;109204;-39
2024/02/03 14:23:10;;;;;;;15.60;10.10;;;;;;;8.56;94.18;98536.65;436131;1247;99218;-40
2024/02/03 14:43:19;;;;;;;12.20;7.80;;;;;;;8.41;94.96;98523.48;436325;1253;107296;-39
2024/02/03 14:53:26;;;;;;;9.40;4.70;;;;;;;8.32;95.37;98527.63;436198;1253;98810;-40
2024/02/03 15:03:32;;;;;;;15.20;11.10;;;;;;;8.27;95.99;98520.20;436036;1248;108649;-39
2024/02/03 15:13:35;;;;;;;16.10;11.10;;;;;;;8.20;96.13;98516.61;436069;1253;99221;-39
2024/02/03 15:23:39;;;;;;;11.10;7.60;;;;;;;8.19;96.09;98528.38;436076;1253;112919;-39
2024/02/03 15:43:53;;;;;;;42.00;18.60;;;;;;;8.18;96.37;98541.71;436335;1253;97932;-40
2024/02/03 16:14:04;;;;;;;14.40;10.20;;;;;;;8.06;96.95;98542.56;436192;1247;110763;-39
2024/02/03 16:24:08;;;;;;;15.40;8.80;;;;;;;8.04;97.36;98549.44;436201;1248;108551;-38
2024/02/03 16:34:13;;;;;;;11.70;5.80;;;;;;;8.04;97.70;98572.34;436277;1249;99129;-39
2024/02/03 16:44:15;;;;;;;15.10;8.70;;;;;;;8.01;97.86;98580.70;436327;1248;108423;-39
2024/02/03 16:54:22;;;;;;;22.10;11.40;;;;;;;8.05;97.90;98580.80;436527;1250;99238;-39
2024/02/03 17:14:32;;;;;;;11.70;7.10;;;;;;;7.98;97.87;98592.27;436237;1248;108269;-39
2024/02/03 17:24:36;;;;;;;14.20;8.90;;;;;;;7.90;97.88;98588.45;436362;1251;98933;-39
2024/02/03 17:34:43;;;;;;;12.10;6.90;;;;;;;7.86;98.04;98577.98;437569;1253;108459;-40
2024/02/03 17:54:53;;;;;;;5.00;4.40;;;;;;;7.85;98.38;98570.58;437773;1252;113034;-40
2024/02/03 18:04:57;;;;;;;10.90;7.70;;;;;;;7.81;98.57;98578.34;437963;1248;108325;-39
2024/02/03 18:35:11;;;;;;;12.10;9.40;;;;;;;7.81;99.00;98567.65;438398;1253;99205;-40
2024/02/03 18:45:15;;;;;;;11.90;10.60;;;;;;;7.78;99.04;98560.05;438289;1253;112734;-40
2024/02/03 18:55:19;;;;;;;10.10;6.10;;;;;;;7.77;99.24;98560.45;438692;1253;108604;-40
2024/02/03 19:05:22;;;;;;;8.70;6.00;;;;;;;7.78;99.26;98552.75;438743;1253;99646;-40
2024/02/03 19:25:30;;;;;;;9.80;6.80;;;;;;;7.79;99.54;98550.20;437771;1260;98005;-39
2024/02/03 19:35:33;;;;;;;10.90;7.20;;;;;;;7.79;99.46;98555.42;437217;1251;112044;-41
2024/02/03 19:45:37;;;;;;;14.70;9.60;;;;;;;7.78;99.60;98547.89;437096;1253;107832;-40
2024/02/03 20:05:43;;;;;;;13.50;9.50;;;;;;;7.72;99.73;98546.80;438365;1252;107644;-41
2024/02/03 20:16:01;;;;;;;8.20;5.60;;;;;;;7.73;99.81;98547.13;436665;1253;99208;-43
2024/02/03 20:26:05;;;;;;;8.00;5.50;;;;;;;7.76;99.90;98547.14;436644;1250;111890;-41
2024/02/03 20:36:08;;;;;;;10.40;6.00;;;;;;;7.74;100.00;98551.98;436001;1250;576872;-40
2024/02/03 20:56:19;;;;;;;13.00;8.60;;;;;;;7.64;100.00;98548.01;436576;1250;108015;-39
2024/02/03 21:16:25;;;;;;;26.80;18.20;;;;;;;7.59;100.00;98538.56;436273;1252;112858;-39
2024/02/03 21:36:31;;;;;;;25.60;12.20;;;;;;;7.52;100.00;98532.56;437987;1253;99233;-39
2024/02/03 21:46:34;;;;;;;18.80;10.30;;;;;;;7.50;100.00;98521.29;437158;1253;108483;-40
2024/02/03 21:56:37;;;;;;;13.80;8.10;;;;;;;7.46;100.00;98512.17;436229;1251;99238;-39
2024/02/03 22:16:43;;;;;;;15.60;9.50;;;;;;;7.46;100.00;98498.59;436253;1249;107936;-40
2024/02/03 22:26:47;;;;;;;12.50;7.10;;;;;;;7.45;100.00;98490.08;436318;1253;99139;-40
2024/02/03 22:36:54;;;;;;;5.90;4.00;;;;;;;7.42;100.00;98485.77;436309;1253;108064;-40
2024/02/03 22:46:57;;;;;;;8.70;6.00;;;;;;;7.36;100.00;98492.20;436492;1251;98008;-40
2024/02/03 22:57:00;;;;;;;5.20;4.40;;;;;;;7.31;100.00;98486.27;436256;1253;111865;-40
2024/02/03 23:07:03;;;;;;;5.70;5.10;;;;;;;7.32;100.00;98475.70;436184;1253;108220;-40
2024/02/03 23:17:06;;;;;;;9.50;5.50;;;;;;;7.30;100.00;98457.19;436465;1253;99191;-39
2024/02/03 23:27:13;;;;;;;4.10;3.30;;;;;;;7.29;100.00;98441.17;436352;1253;108578;-39
2024/02/03 23:37:16;;;;;;;3.20;2.90;;;;;;;7.27;100.00;98430.95;436221;1251;99340;-39
2024/02/03 23:47:19;;;;;;;2.60;2.40;;;;;;;7.21;100.00;98431.44;436370;1253;111785;-39
2024/02/03 23:57:23;;;;;;;3.90;2.80;;;;;;;7.11;100.00;98394.10;436427;1250;106876;-39
